sensor_id;sensor_type;location;lat;lon;timestamp;pressure;altitude;pressure_sealevel;temperature;humidity
30744;BME280;17486;46.738;7.622;2023-04-27T00:01:30;95218.41;;;12.91;55.22
30744;BME280;17486;46.738;7.622;2023-04-27T00:03:56;95216.00;;;12.88;54.56
30744;BME280;17486;46.738;7.622;2023-04-27T00:06:21;95213.16;;;12.76;53.42
30744;BME280;17486;46.738;7.622;2023-04-27T00:08:46;95204.00;;;12.69;52.84
30744;BME280;17486;46.738;7.622;2023-04-27T00:11:12;95206.56;;;12.71;52.62
30744;BME280;17486;46.738;7.622;2023-04-27T00:13:37;95211.38;;;12.77;52.73
30744;BME280;17486;46.738;7.622;2023-04-27T00:16:03;95213.38;;;12.88;52.25
30744;BME280;17486;46.738;7.622;2023-04-27T00:18:31;95215.44;;;12.97;51.79
30744;BME280;17486;46.738;7.622;2023-04-27T00:20:57;95217.31;;;13.09;51.80
30744;BME280;17486;46.738;7.622;2023-04-27T00:23:22;95222.84;;;13.19;51.66
30744;BME280;17486;46.738;7.622;2023-04-27T00:25:48;95220.69;;;13.26;51.56
30744;BME280;17486;46.738;7.622;2023-04-27T00:28:13;95208.91;;;13.19;52.08
30744;BME280;17486;46.738;7.622;2023-04-27T00:30:38;95216.38;;;13.10;52.49
30744;BME280;17486;46.738;7.622;2023-04-27T00:33:04;95219.00;;;13.10;52.45
30744;BME280;17486;46.738;7.622;2023-04-27T00:35:31;95206.03;;;13.09;52.92
30744;BME280;17486;46.738;7.622;2023-04-27T00:37:57;95199.38;;;13.03;52.92
30744;BME280;17486;46.738;7.622;2023-04-27T00:40:22;95195.28;;;12.99;52.72
30744;BME280;17486;46.738;7.622;2023-04-27T00:42:48;95194.09;;;12.90;52.22
30744;BME280;17486;46.738;7.622;2023-04-27T00:45:13;95197.06;;;12.84;51.71
30744;BME280;17486;46.738;7.622;2023-04-27T00:47:39;95199.75;;;12.83;50.77
30744;BME280;17486;46.738;7.622;2023-04-27T00:50:04;95195.38;;;12.83;50.50
30744;BME280;17486;46.738;7.622;2023-04-27T00:52:38;95197.16;;;12.83;49.73
30744;BME280;17486;46.738;7.622;2023-04-27T00:55:04;95194.53;;;12.83;49.54
30744;BME280;17486;46.738;7.622;2023-04-27T00:57:30;95204.41;;;12.77;49.77
30744;BME280;17486;46.738;7.622;2023-04-27T00:59:56;95207.94;;;12.76;49.78
30744;BME280;17486;46.738;7.622;2023-04-27T01:02:21;95207.84;;;12.78;50.12
30744;BME280;17486;46.738;7.622;2023-04-27T01:04:47;95189.00;;;12.73;50.06
30744;BME280;17486;46.738;7.622;2023-04-27T01:07:15;95213.16;;;12.76;49.88
30744;BME280;17486;46.738;7.622;2023-04-27T01:09:40;95195.44;;;12.67;49.90
30744;BME280;17486;46.738;7.622;2023-04-27T01:12:06;95214.09;;;12.75;49.85
30744;BME280;17486;46.738;7.622;2023-04-27T01:14:31;95213.34;;;12.73;49.15
30744;BME280;17486;46.738;7.622;2023-04-27T01:16:57;95214.38;;;12.71;49.39
30744;BME280;17486;46.738;7.622;2023-04-27T01:19:22;95217.25;;;12.66;49.29
30744;BME280;17486;46.738;7.622;2023-04-27T01:21:47;95214.97;;;12.60;48.99
30744;BME280;17486;46.738;7.622;2023-04-27T01:24:13;95223.91;;;12.56;49.00
30744;BME280;17486;46.738;7.622;2023-04-27T01:26:39;95227.53;;;12.53;49.20
30744;BME280;17486;46.738;7.622;2023-04-27T01:29:04;95226.97;;;12.48;48.90
30744;BME280;17486;46.738;7.622;2023-04-27T01:31:30;95234.16;;;12.44;49.47
30744;BME280;17486;46.738;7.622;2023-04-27T01:33:55;95230.97;;;12.39;49.58
30744;BME280;17486;46.738;7.622;2023-04-27T01:36:21;95223.47;;;12.33;49.49
30744;BME280;17486;46.738;7.622;2023-04-27T01:38:46;95235.50;;;12.36;49.46
30744;BME280;17486;46.738;7.622;2023-04-27T01:41:12;95243.59;;;12.31;49.82
30744;BME280;17486;46.738;7.622;2023-04-27T01:43:37;95235.66;;;12.33;49.83
30744;BME280;17486;46.738;7.622;2023-04-27T01:46:06;95244.34;;;12.33;49.89
30744;BME280;17486;46.738;7.622;2023-04-27T01:48:33;95241.56;;;12.36;49.67
30744;BME280;17486;46.738;7.622;2023-04-27T01:50:58;95237.34;;;12.34;49.67
30744;BME280;17486;46.738;7.622;2023-04-27T01:53:24;95244.16;;;12.36;50.01
30744;BME280;17486;46.738;7.622;2023-04-27T01:55:49;95244.25;;;12.35;50.06
30744;BME280;17486;46.738;7.622;2023-04-27T01:58:15;95255.34;;;12.38;50.52
30744;BME280;17486;46.738;7.622;2023-04-27T02:00:40;95237.53;;;12.31;50.40
30744;BME280;17486;46.738;7.622;2023-04-27T02:03:05;95259.66;;;12.39;50.71
30744;BME280;17486;46.738;7.622;2023-04-27T02:05:31;95240.63;;;12.37;50.49
30744;BME280;17486;46.738;7.622;2023-04-27T02:07:56;95252.91;;;12.35;50.83
30744;BME280;17486;46.738;7.622;2023-04-27T02:10:21;95245.34;;;12.31;50.75
30744;BME280;17486;46.738;7.622;2023-04-27T02:12:47;95252.69;;;12.24;50.82
30744;BME280;17486;46.738;7.622;2023-04-27T02:15:13;95252.44;;;12.13;51.20
30744;BME280;17486;46.738;7.622;2023-04-27T02:17:38;95246.81;;;12.04;51.37
30744;BME280;17486;46.738;7.622;2023-04-27T02:20:05;95252.19;;;12.01;51.36
30744;BME280;17486;46.738;7.622;2023-04-27T02:22:35;95237.19;;;11.89;51.65
30744;BME280;17486;46.738;7.622;2023-04-27T02:25:01;95244.84;;;11.92;51.91
30744;BME280;17486;46.738;7.622;2023-04-27T02:27:26;95263.34;;;11.87;52.44
30744;BME280;17486;46.738;7.622;2023-04-27T02:29:52;95252.56;;;11.77;51.88
30744;BME280;17486;46.738;7.622;2023-04-27T02:32:17;95256.63;;;11.67;52.39
30744;BME280;17486;46.738;7.622;2023-04-27T02:34:43;95253.88;;;11.53;52.58
30744;BME280;17486;46.738;7.622;2023-04-27T02:37:08;95261.13;;;11.48;52.69
30744;BME280;17486;46.738;7.622;2023-04-27T02:39:33;95260.38;;;11.45;53.09
30744;BME280;17486;46.738;7.622;2023-04-27T02:41:59;95255.16;;;11.45;53.17
30744;BME280;17486;46.738;7.622;2023-04-27T02:44:25;95265.41;;;11.49;52.99
30744;BME280;17486;46.738;7.622;2023-04-27T02:46:51;95240.75;;;11.38;52.40
30744;BME280;17486;46.738;7.622;2023-04-27T02:49:16;95250.88;;;11.44;52.79
30744;BME280;17486;46.738;7.622;2023-04-27T02:51:41;95244.97;;;11.41;52.26
30744;BME280;17486;46.738;7.622;2023-04-27T02:54:08;95247.91;;;11.35;52.65
30744;BME280;17486;46.738;7.622;2023-04-27T02:56:33;95248.66;;;11.37;52.86
30744;BME280;17486;46.738;7.622;2023-04-27T02:58:58;95244.44;;;11.34;52.21
30744;BME280;17486;46.738;7.622;2023-04-27T03:01:24;95239.25;;;11.34;52.52
30744;BME280;17486;46.738;7.622;2023-04-27T03:03:49;95243.53;;;11.35;52.04
30744;BME280;17486;46.738;7.622;2023-04-27T03:06:15;95244.31;;;11.37;52.09
30744;BME280;17486;46.738;7.622;2023-04-27T03:08:40;95236.13;;;11.27;51.80
30744;BME280;17486;46.738;7.622;2023-04-27T03:11:06;95251.03;;;11.41;51.92
30744;BME280;17486;46.738;7.622;2023-04-27T03:13:33;95256.25;;;11.41;51.93
30744;BME280;17486;46.738;7.622;2023-04-27T03:16:07;95244.44;;;11.34;51.12
30744;BME280;17486;46.738;7.622;2023-04-27T03:18:32;95255.31;;;11.42;51.25
30744;BME280;17486;46.738;7.622;2023-04-27T03:21:05;95250.13;;;11.42;51.40
30744;BME280;17486;46.738;7.622;2023-04-27T03:23:30;95247.66;;;11.39;51.31
30744;BME280;17486;46.738;7.622;2023-04-27T03:25:56;95255.72;;;11.35;52.10
30744;BME280;17486;46.738;7.622;2023-04-27T03:28:21;95259.25;;;11.34;51.96
30744;BME280;17486;46.738;7.622;2023-04-27T03:30:46;95251.59;;;11.31;51.85
30744;BME280;17486;46.738;7.622;2023-04-27T03:33:12;95254.22;;;11.31;52.52
30744;BME280;17486;46.738;7.622;2023-04-27T03:35:38;95254.34;;;11.27;52.84
30744;BME280;17486;46.738;7.622;2023-04-27T03:38:03;95246.94;;;11.20;52.42
30744;BME280;17486;46.738;7.622;2023-04-27T03:40:28;95253.66;;;11.24;52.77
30744;BME280;17486;46.738;7.622;2023-04-27T03:42:55;95260.81;;;11.20;52.95
30744;BME280;17486;46.738;7.622;2023-04-27T03:45:20;95259.28;;;11.16;52.64
30744;BME280;17486;46.738;7.622;2023-04-27T03:47:46;95267.16;;;11.15;52.60
30744;BME280;17486;46.738;7.622;2023-04-27T03:50:12;95263.19;;;11.07;52.52
30744;BME280;17486;46.738;7.622;2023-04-27T03:52:37;95264.28;;;11.03;52.52
30744;BME280;17486;46.738;7.622;2023-04-27T03:55:03;95262.06;;;10.95;52.37
30744;BME280;17486;46.738;7.622;2023-04-27T03:57:29;95270.88;;;10.93;53.07
30744;BME280;17486;46.738;7.622;2023-04-27T03:59:56;95251.81;;;10.75;53.02
30744;BME280;17486;46.738;7.622;2023-04-27T04:02:21;95250.81;;;10.77;53.80
30744;BME280;17486;46.738;7.622;2023-04-27T04:04:48;95262.31;;;10.73;53.32
30744;BME280;17486;46.738;7.622;2023-04-27T04:07:13;95244.69;;;10.61;53.53
30744;BME280;17486;46.738;7.622;2023-04-27T04:09:38;95269.88;;;10.60;53.25
30744;BME280;17486;46.738;7.622;2023-04-27T04:12:04;95257.69;;;10.61;52.67
30744;BME280;17486;46.738;7.622;2023-04-27T04:14:30;95263.06;;;10.58;52.93
30744;BME280;17486;46.738;7.622;2023-04-27T04:16:56;95262.25;;;10.57;52.77
30744;BME280;17486;46.738;7.622;2023-04-27T04:19:21;95260.63;;;10.55;53.13
30744;BME280;17486;46.738;7.622;2023-04-27T04:21:46;95264.97;;;10.54;52.91
30744;BME280;17486;46.738;7.622;2023-04-27T04:24:12;95266.81;;;10.52;52.91
30744;BME280;17486;46.738;7.622;2023-04-27T04:26:37;95246.59;;;10.40;52.99
30744;BME280;17486;46.738;7.622;2023-04-27T04:29:03;95261.75;;;10.49;53.01
30744;BME280;17486;46.738;7.622;2023-04-27T04:31:29;95265.84;;;10.55;52.58
30744;BME280;17486;46.738;7.622;2023-04-27T04:33:55;95279.56;;;10.57;53.04
30744;BME280;17486;46.738;7.622;2023-04-27T04:36:20;95272.63;;;10.57;52.86
30744;BME280;17486;46.738;7.622;2023-04-27T04:38:46;95274.53;;;10.54;53.43
30744;BME280;17486;46.738;7.622;2023-04-27T04:41:11;95279.75;;;10.54;53.46
30744;BME280;17486;46.738;7.622;2023-04-27T04:43:37;95282.25;;;10.55;54.03
30744;BME280;17486;46.738;7.622;2023-04-27T04:46:02;95273.00;;;10.50;54.09
30744;BME280;17486;46.738;7.622;2023-04-27T04:48:27;95277.13;;;10.54;54.03
30744;BME280;17486;46.738;7.622;2023-04-27T04:50:53;95272.31;;;10.46;54.27
30744;BME280;17486;46.738;7.622;2023-04-27T04:53:18;95287.63;;;10.52;53.64
30744;BME280;17486;46.738;7.622;2023-04-27T04:55:44;95282.34;;;10.54;54.26
30744;BME280;17486;46.738;7.622;2023-04-27T04:58:09;95295.19;;;10.57;53.94
30744;BME280;17486;46.738;7.622;2023-04-27T05:00:34;95288.31;;;10.56;54.16
30744;BME280;17486;46.738;7.622;2023-04-27T05:03:00;95281.72;;;10.49;53.74
30744;BME280;17486;46.738;7.622;2023-04-27T05:05:25;95282.91;;;10.41;54.23
30744;BME280;17486;46.738;7.622;2023-04-27T05:07:51;95272.75;;;10.18;54.13
30744;BME280;17486;46.738;7.622;2023-04-27T05:10:16;95291.72;;;10.20;54.29
30744;BME280;17486;46.738;7.622;2023-04-27T05:12:41;95282.25;;;10.19;54.58
30744;BME280;17486;46.738;7.622;2023-04-27T05:15:08;95286.69;;;10.17;55.11
30744;BME280;17486;46.738;7.622;2023-04-27T05:17:34;95280.34;;;10.22;54.81
30744;BME280;17486;46.738;7.622;2023-04-27T05:19:59;95289.91;;;10.22;55.27
30744;BME280;17486;46.738;7.622;2023-04-27T05:22:25;95298.03;;;10.33;54.91
30744;BME280;17486;46.738;7.622;2023-04-27T05:24:50;95295.34;;;10.35;55.20
30744;BME280;17486;46.738;7.622;2023-04-27T05:27:16;95293.41;;;10.40;55.36
30744;BME280;17486;46.738;7.622;2023-04-27T05:29:41;95297.31;;;10.49;54.76
30744;BME280;17486;46.738;7.622;2023-04-27T05:32:06;95295.63;;;10.48;55.08
30744;BME280;17486;46.738;7.622;2023-04-27T05:34:32;95296.13;;;10.56;54.69
30744;BME280;17486;46.738;7.622;2023-04-27T05:36:57;95300.19;;;10.61;54.97
30744;BME280;17486;46.738;7.622;2023-04-27T05:39:22;95300.78;;;10.67;55.33
30744;BME280;17486;46.738;7.622;2023-04-27T05:41:48;95303.16;;;10.71;54.83
30744;BME280;17486;46.738;7.622;2023-04-27T05:44:13;95301.25;;;10.75;54.34
30744;BME280;17486;46.738;7.622;2023-04-27T05:46:39;95298.66;;;10.75;54.57
30744;BME280;17486;46.738;7.622;2023-04-27T05:49:04;95301.16;;;10.76;54.44
30744;BME280;17486;46.738;7.622;2023-04-27T05:51:31;95307.91;;;10.81;54.14
30744;BME280;17486;46.738;7.622;2023-04-27T05:53:57;95309.59;;;10.82;54.35
30744;BME280;17486;46.738;7.622;2023-04-27T05:56:24;95318.16;;;10.84;54.33
30744;BME280;17486;46.738;7.622;2023-04-27T05:58:49;95305.38;;;10.79;53.90
30744;BME280;17486;46.738;7.622;2023-04-27T06:01:15;95327.41;;;10.89;53.97
30744;BME280;17486;46.738;7.622;2023-04-27T06:03:40;95326.25;;;10.95;53.72
30744;BME280;17486;46.738;7.622;2023-04-27T06:06:05;95334.03;;;10.97;53.74
30744;BME280;17486;46.738;7.622;2023-04-27T06:08:31;95332.25;;;10.97;53.13
30744;BME280;17486;46.738;7.622;2023-04-27T06:10:56;95331.34;;;10.98;53.01
30744;BME280;17486;46.738;7.622;2023-04-27T06:13:22;95332.16;;;10.99;53.02
30744;BME280;17486;46.738;7.622;2023-04-27T06:15:47;95327.66;;;11.02;53.56
30744;BME280;17486;46.738;7.622;2023-04-27T06:18:13;95332.56;;;11.08;53.21
30744;BME280;17486;46.738;7.622;2023-04-27T06:20:38;95336.44;;;11.17;53.56
30744;BME280;17486;46.738;7.622;2023-04-27T06:23:04;95342.97;;;11.26;53.30
30744;BME280;17486;46.738;7.622;2023-04-27T06:25:30;95326.56;;;11.24;53.16
30744;BME280;17486;46.738;7.622;2023-04-27T06:27:56;95341.41;;;11.39;52.57
30744;BME280;17486;46.738;7.622;2023-04-27T06:30:22;95348.13;;;11.43;52.64
30744;BME280;17486;46.738;7.622;2023-04-27T06:32:48;95337.50;;;11.48;52.64
30744;BME280;17486;46.738;7.622;2023-04-27T06:35:13;95334.56;;;11.54;52.39
30744;BME280;17486;46.738;7.622;2023-04-27T06:37:39;95337.69;;;11.61;52.32
30744;BME280;17486;46.738;7.622;2023-04-27T06:40:05;95342.44;;;11.70;52.73
30744;BME280;17486;46.738;7.622;2023-04-27T06:42:31;95344.53;;;11.80;53.09
30744;BME280;17486;46.738;7.622;2023-04-27T06:44:56;95340.63;;;11.88;52.67
30744;BME280;17486;46.738;7.622;2023-04-27T06:47:22;95341.91;;;11.97;52.41
30744;BME280;17486;46.738;7.622;2023-04-27T06:49:47;95337.97;;;12.06;52.11
30744;BME280;17486;46.738;7.622;2023-04-27T06:52:13;95328.03;;;12.13;52.28
30744;BME280;17486;46.738;7.622;2023-04-27T06:54:38;95352.19;;;12.32;52.22
30744;BME280;17486;46.738;7.622;2023-04-27T06:57:04;95343.94;;;12.40;51.69
30744;BME280;17486;46.738;7.622;2023-04-27T06:59:30;95340.00;;;12.49;51.25
30744;BME280;17486;46.738;7.622;2023-04-27T07:01:55;95344.59;;;12.59;50.78
30744;BME280;17486;46.738;7.622;2023-04-27T07:04:21;95342.25;;;12.71;50.44
30744;BME280;17486;46.738;7.622;2023-04-27T07:06:46;95327.91;;;12.78;49.92
30744;BME280;17486;46.738;7.622;2023-04-27T07:09:11;95337.16;;;12.84;49.66
30744;BME280;17486;46.738;7.622;2023-04-27T07:11:37;95338.50;;;12.91;49.56
30744;BME280;17486;46.738;7.622;2023-04-27T07:14:02;95331.13;;;12.98;49.40
30744;BME280;17486;46.738;7.622;2023-04-27T07:16:28;95323.78;;;13.04;49.23
30744;BME280;17486;46.738;7.622;2023-04-27T07:18:53;95330.06;;;13.16;49.19
30744;BME280;17486;46.738;7.622;2023-04-27T07:21:18;95327.94;;;13.23;49.35
30744;BME280;17486;46.738;7.622;2023-04-27T07:23:43;95326.66;;;13.30;49.54
30744;BME280;17486;46.738;7.622;2023-04-27T07:26:10;95323.72;;;13.36;49.52
30744;BME280;17486;46.738;7.622;2023-04-27T07:28:37;95317.94;;;13.46;49.47
30744;BME280;17486;46.738;7.622;2023-04-27T07:31:04;95313.19;;;13.52;49.27
30744;BME280;17486;46.738;7.622;2023-04-27T07:33:29;95326.16;;;13.54;48.81
30744;BME280;17486;46.738;7.622;2023-04-27T07:35:55;95317.94;;;13.60;48.61
30744;BME280;17486;46.738;7.622;2023-04-27T07:38:20;95314.94;;;13.66;48.57
30744;BME280;17486;46.738;7.622;2023-04-27T07:40:46;95311.31;;;13.69;48.11
30744;BME280;17486;46.738;7.622;2023-04-27T07:43:12;95313.66;;;13.73;48.46
30744;BME280;17486;46.738;7.622;2023-04-27T07:45:37;95314.00;;;13.82;48.91
30744;BME280;17486;46.738;7.622;2023-04-27T07:48:05;95309.69;;;13.95;48.26
30744;BME280;17486;46.738;7.622;2023-04-27T07:50:31;95306.59;;;14.03;48.31
30744;BME280;17486;46.738;7.622;2023-04-27T07:52:56;95305.56;;;14.05;47.86
30744;BME280;17486;46.738;7.622;2023-04-27T07:55:22;95292.16;;;13.97;47.28
30744;BME280;17486;46.738;7.622;2023-04-27T07:57:52;95301.84;;;14.09;47.63
30744;BME280;17486;46.738;7.622;2023-04-27T08:00:18;95293.97;;;14.09;47.94
30744;BME280;17486;46.738;7.622;2023-04-27T08:02:44;95295.66;;;14.10;47.93
30744;BME280;17486;46.738;7.622;2023-04-27T08:05:10;95284.72;;;14.18;48.15
30744;BME280;17486;46.738;7.622;2023-04-27T08:07:35;95288.44;;;14.29;48.17
30744;BME280;17486;46.738;7.622;2023-04-27T08:10:00;95283.28;;;14.41;48.28
30744;BME280;17486;46.738;7.622;2023-04-27T08:12:26;95291.16;;;14.54;48.30
30744;BME280;17486;46.738;7.622;2023-04-27T08:14:51;95297.56;;;14.63;47.64
30744;BME280;17486;46.738;7.622;2023-04-27T08:17:17;95290.28;;;14.68;47.71
30744;BME280;17486;46.738;7.622;2023-04-27T08:19:43;95296.72;;;14.77;47.73
30744;BME280;17486;46.738;7.622;2023-04-27T08:22:08;95296.97;;;14.87;47.50
30744;BME280;17486;46.738;7.622;2023-04-27T08:24:34;95289.44;;;14.95;46.92
30744;BME280;17486;46.738;7.622;2023-04-27T08:26:59;95283.25;;;14.96;46.56
30744;BME280;17486;46.738;7.622;2023-04-27T08:29:25;95284.63;;;15.02;46.66
30744;BME280;17486;46.738;7.622;2023-04-27T08:31:50;95286.63;;;15.11;46.54
30744;BME280;17486;46.738;7.622;2023-04-27T08:34:15;95283.28;;;15.22;46.75
30744;BME280;17486;46.738;7.622;2023-04-27T08:36:41;95277.31;;;15.33;46.70
30744;BME280;17486;46.738;7.622;2023-04-27T08:39:07;95278.97;;;15.47;47.05
30744;BME280;17486;46.738;7.622;2023-04-27T08:41:33;95288.84;;;15.56;48.71
30744;BME280;17486;46.738;7.622;2023-04-27T08:43:58;95291.22;;;15.72;49.13
30744;BME280;17486;46.738;7.622;2023-04-27T08:46:24;95287.25;;;15.79;50.50
30744;BME280;17486;46.738;7.622;2023-04-27T08:48:53;95288.44;;;15.88;48.00
30744;BME280;17486;46.738;7.622;2023-04-27T08:51:19;95272.25;;;15.94;46.98
30744;BME280;17486;46.738;7.622;2023-04-27T08:53:53;95275.84;;;15.93;45.80
30744;BME280;17486;46.738;7.622;2023-04-27T08:56:19;95285.66;;;16.02;45.79
30744;BME280;17486;46.738;7.622;2023-04-27T08:58:47;95280.19;;;16.05;45.46
30744;BME280;17486;46.738;7.622;2023-04-27T09:01:13;95274.19;;;16.16;45.33
30744;BME280;17486;46.738;7.622;2023-04-27T09:03:38;95269.75;;;16.30;45.20
30744;BME280;17486;46.738;7.622;2023-04-27T09:06:04;95267.91;;;16.43;44.61
30744;BME280;17486;46.738;7.622;2023-04-27T09:08:49;95263.44;;;16.56;44.78
30744;BME280;17486;46.738;7.622;2023-04-27T09:11:26;95246.28;;;16.64;44.02
30744;BME280;17486;46.738;7.622;2023-04-27T09:13:52;95259.22;;;16.78;44.04
30744;BME280;17486;46.738;7.622;2023-04-27T09:16:22;95256.88;;;16.86;43.65
30744;BME280;17486;46.738;7.622;2023-04-27T09:18:47;95253.81;;;16.93;43.34
30744;BME280;17486;46.738;7.622;2023-04-27T09:21:24;95254.19;;;16.99;43.24
30744;BME280;17486;46.738;7.622;2023-04-27T09:23:50;95256.81;;;17.11;43.12
30744;BME280;17486;46.738;7.622;2023-04-27T09:26:20;95257.81;;;17.21;42.47
30744;BME280;17486;46.738;7.622;2023-04-27T09:28:48;95255.44;;;17.40;42.38
30744;BME280;17486;46.738;7.622;2023-04-27T09:31:15;95257.38;;;17.61;41.89
30744;BME280;17486;46.738;7.622;2023-04-27T09:33:42;95251.41;;;17.82;41.23
30744;BME280;17486;46.738;7.622;2023-04-27T09:36:08;95248.78;;;17.93;41.09
30744;BME280;17486;46.738;7.622;2023-04-27T09:38:34;95252.59;;;18.12;41.23
30744;BME280;17486;46.738;7.622;2023-04-27T09:40:59;95244.94;;;18.09;40.82
30744;BME280;17486;46.738;7.622;2023-04-27T09:43:25;95251.63;;;18.13;40.57
30744;BME280;17486;46.738;7.622;2023-04-27T09:45:53;95255.94;;;18.14;40.66
30744;BME280;17486;46.738;7.622;2023-04-27T09:48:20;95245.41;;;18.14;41.04
30744;BME280;17486;46.738;7.622;2023-04-27T09:50:47;95248.78;;;18.16;40.77
30744;BME280;17486;46.738;7.622;2023-04-27T09:53:20;95253.53;;;18.22;40.89
30744;BME280;17486;46.738;7.622;2023-04-27T09:58:42;95250.06;;;18.33;40.43
30744;BME280;17486;46.738;7.622;2023-04-27T10:01:38;95238.06;;;18.29;40.77
30744;BME280;17486;46.738;7.622;2023-04-27T10:09:24;95243.88;;;18.55;39.96
30744;BME280;17486;46.738;7.622;2023-04-27T10:11:52;95241.94;;;18.57;40.33
30744;BME280;17486;46.738;7.622;2023-04-27T10:14:23;95240.50;;;18.64;40.45
30744;BME280;17486;46.738;7.622;2023-04-27T10:16:54;95231.25;;;18.70;40.24
30744;BME280;17486;46.738;7.622;2023-04-27T10:19:21;95234.53;;;18.83;39.87
30744;BME280;17486;46.738;7.622;2023-04-27T10:24:16;95231.81;;;19.06;39.15
30744;BME280;17486;46.738;7.622;2023-04-27T10:26:46;95225.69;;;19.27;39.15
30744;BME280;17486;46.738;7.622;2023-04-27T10:29:11;95224.00;;;19.47;39.08
30744;BME280;17486;46.738;7.622;2023-04-27T10:31:44;95220.47;;;19.67;38.76
30744;BME280;17486;46.738;7.622;2023-04-27T10:34:16;95220.84;;;19.84;38.38
30744;BME280;17486;46.738;7.622;2023-04-27T10:36:42;95219.31;;;19.91;38.36
30744;BME280;17486;46.738;7.622;2023-04-27T10:39:19;95214.06;;;19.91;38.44
30744;BME280;17486;46.738;7.622;2023-04-27T10:41:54;95211.16;;;19.94;38.33
30744;BME280;17486;46.738;7.622;2023-04-27T10:44:30;95199.34;;;19.98;38.26
30744;BME280;17486;46.738;7.622;2023-04-27T10:46:58;95205.34;;;20.10;37.46
30744;BME280;17486;46.738;7.622;2023-04-27T10:49:26;95203.16;;;20.15;37.51
30744;BME280;17486;46.738;7.622;2023-04-27T10:51:56;95204.69;;;20.18;37.69
30744;BME280;17486;46.738;7.622;2023-04-27T10:54:26;95206.22;;;20.20;37.85
30744;BME280;17486;46.738;7.622;2023-04-27T10:56:52;95194.25;;;20.26;36.97
30744;BME280;17486;46.738;7.622;2023-04-27T10:59:18;95187.72;;;20.30;37.01
30744;BME280;17486;46.738;7.622;2023-04-27T11:01:47;95199.69;;;20.34;37.03
30744;BME280;17486;46.738;7.622;2023-04-27T11:04:12;95189.13;;;20.34;36.73
30744;BME280;17486;46.738;7.622;2023-04-27T11:06:42;95187.59;;;20.42;37.00
30744;BME280;17486;46.738;7.622;2023-04-27T11:09:08;95188.44;;;20.52;37.17
30744;BME280;17486;46.738;7.622;2023-04-27T11:11:35;95180.94;;;20.67;37.44
30744;BME280;17486;46.738;7.622;2023-04-27T11:14:00;95187.19;;;20.85;37.28
30744;BME280;17486;46.738;7.622;2023-04-27T11:16:27;95180.75;;;21.08;35.93
30744;BME280;17486;46.738;7.622;2023-04-27T11:18:53;95174.34;;;21.20;35.61
30744;BME280;17486;46.738;7.622;2023-04-27T11:21:18;95166.66;;;21.27;35.47
30744;BME280;17486;46.738;7.622;2023-04-27T11:23:47;95182.06;;;21.41;34.58
30744;BME280;17486;46.738;7.622;2023-04-27T11:26:19;95171.91;;;21.46;34.78
30744;BME280;17486;46.738;7.622;2023-04-27T11:29:01;95157.97;;;21.54;35.45
30744;BME280;17486;46.738;7.622;2023-04-27T11:31:44;95156.13;;;21.64;35.27
30744;BME280;17486;46.738;7.622;2023-04-27T11:34:19;95161.34;;;21.74;35.14
30744;BME280;17486;46.738;7.622;2023-04-27T11:37:05;95170.22;;;21.83;34.86
30744;BME280;17486;46.738;7.622;2023-04-27T11:39:36;95174.94;;;21.89;34.65
30744;BME280;17486;46.738;7.622;2023-04-27T11:44:40;95161.19;;;22.03;33.97
30744;BME280;17486;46.738;7.622;2023-04-27T11:47:06;95161.81;;;22.15;33.83
30744;BME280;17486;46.738;7.622;2023-04-27T11:49:31;95162.34;;;22.19;33.95
30744;BME280;17486;46.738;7.622;2023-04-27T11:51:56;95158.47;;;22.13;33.70
30744;BME280;17486;46.738;7.622;2023-04-27T11:54:27;95168.09;;;22.14;33.88
30744;BME280;17486;46.738;7.622;2023-04-27T11:56:52;95157.66;;;22.13;33.60
30744;BME280;17486;46.738;7.622;2023-04-27T11:59:28;95162.06;;;22.22;33.99
30744;BME280;17486;46.738;7.622;2023-04-27T12:01:53;95169.03;;;22.41;33.70
30744;BME280;17486;46.738;7.622;2023-04-27T12:04:19;95166.03;;;22.54;32.84
30744;BME280;17486;46.738;7.622;2023-04-27T12:06:44;95174.34;;;22.59;32.75
30744;BME280;17486;46.738;7.622;2023-04-27T12:09:10;95161.41;;;22.56;32.39
30744;BME280;17486;46.738;7.622;2023-04-27T12:11:35;95171.84;;;22.58;33.13
30744;BME280;17486;46.738;7.622;2023-04-27T12:14:01;95166.19;;;22.52;33.29
30744;BME280;17486;46.738;7.622;2023-04-27T12:16:26;95157.47;;;22.42;33.10
30744;BME280;17486;46.738;7.622;2023-04-27T12:18:52;95154.59;;;22.35;32.57
30744;BME280;17486;46.738;7.622;2023-04-27T12:21:17;95151.13;;;22.25;32.47
30744;BME280;17486;46.738;7.622;2023-04-27T12:23:43;95159.47;;;22.30;32.69
30744;BME280;17486;46.738;7.622;2023-04-27T12:26:08;95168.66;;;22.36;32.83
30744;BME280;17486;46.738;7.622;2023-04-27T12:28:34;95162.06;;;22.40;32.59
30744;BME280;17486;46.738;7.622;2023-04-27T12:31:02;95157.78;;;22.39;33.08
30744;BME280;17486;46.738;7.622;2023-04-27T12:33:28;95161.31;;;22.48;32.48
30744;BME280;17486;46.738;7.622;2023-04-27T12:35:53;95165.47;;;22.50;32.29
30744;BME280;17486;46.738;7.622;2023-04-27T12:38:18;95160.72;;;22.54;31.73
30744;BME280;17486;46.738;7.622;2023-04-27T12:40:44;95159.97;;;22.62;31.96
30744;BME280;17486;46.738;7.622;2023-04-27T12:43:09;95163.91;;;22.76;31.72
30744;BME280;17486;46.738;7.622;2023-04-27T12:45:37;95158.66;;;22.84;32.20
30744;BME280;17486;46.738;7.622;2023-04-27T12:48:02;95163.75;;;23.04;31.72
30744;BME280;17486;46.738;7.622;2023-04-27T12:50:28;95161.47;;;23.09;31.54
30744;BME280;17486;46.738;7.622;2023-04-27T12:52:54;95153.16;;;23.04;31.30
30744;BME280;17486;46.738;7.622;2023-04-27T12:55:20;95163.44;;;23.07;31.59
30744;BME280;17486;46.738;7.622;2023-04-27T12:57:45;95160.16;;;23.13;31.52
30744;BME280;17486;46.738;7.622;2023-04-27T13:00:11;95159.59;;;23.19;31.67
30744;BME280;17486;46.738;7.622;2023-04-27T13:02:37;95161.31;;;23.28;31.45
30744;BME280;17486;46.738;7.622;2023-04-27T13:05:02;95145.75;;;23.33;30.72
30744;BME280;17486;46.738;7.622;2023-04-27T13:07:28;95155.09;;;23.46;30.55
30744;BME280;17486;46.738;7.622;2023-04-27T13:09:54;95140.47;;;23.42;29.93